createdAt,value
2024-04-13T00:10:21.953Z,567.00
2024-04-13T00:10:53.920Z,570.00
2024-04-13T00:11:53.908Z,573.00
2024-04-13T00:13:28.418Z,569.00
2024-04-13T00:13:53.955Z,563.00
2024-04-13T00:14:53.927Z,558.00
2024-04-13T00:15:53.905Z,553.00
2024-04-13T00:16:54.024Z,551.00
2024-04-13T00:19:26.317Z,551.00
2024-04-13T00:19:58.277Z,549.00
2024-04-13T00:20:58.262Z,550.00
2024-04-13T00:21:58.248Z,549.00
2024-04-13T00:22:58.310Z,550.00
2024-04-13T00:23:58.313Z,556.00
2024-04-13T00:24:58.292Z,558.00
2024-04-13T00:25:58.263Z,562.00
2024-04-13T00:26:58.268Z,572.00
2024-04-13T00:27:58.278Z,578.00
2024-04-13T00:28:58.265Z,577.00
2024-04-13T00:29:58.278Z,578.00
2024-04-13T00:30:58.323Z,578.00
2024-04-13T00:31:58.268Z,573.00
2024-04-13T00:32:58.314Z,575.00
2024-04-13T00:33:58.292Z,576.00
2024-04-13T00:38:39.435Z,575.00
2024-04-13T00:39:11.402Z,574.00
2024-04-13T00:40:11.342Z,566.00
2024-04-13T00:41:12.104Z,562.00
2024-04-13T00:54:39.226Z,573.00
2024-04-13T00:54:59.183Z,573.00
2024-04-13T00:55:59.157Z,573.00
2024-04-13T00:56:59.196Z,576.00
2024-04-13T00:57:59.164Z,578.00
2024-04-13T00:58:59.148Z,579.00
2024-04-13T00:59:59.191Z,582.00
2024-04-13T01:00:59.179Z,586.00
2024-04-13T01:01:59.205Z,586.00
2024-04-13T01:02:59.243Z,587.00
2024-04-13T01:03:59.186Z,586.00
2024-04-13T01:04:59.147Z,585.00
2024-04-13T01:05:59.229Z,587.00
2024-04-13T01:19:26.107Z,591.00
2024-04-13T01:19:47.018Z,587.00
2024-04-13T01:20:47.010Z,587.00
2024-04-13T01:21:46.997Z,586.00
2024-04-13T01:22:47.034Z,583.00
2024-04-13T01:23:47.023Z,582.00
2024-04-13T01:24:47.036Z,587.00
2024-04-13T01:25:47.021Z,590.00
2024-04-13T01:26:47.007Z,592.00
2024-04-13T01:27:47.016Z,591.00
2024-04-13T01:28:47.004Z,591.00
2024-04-13T01:29:47.024Z,594.00
2024-04-13T01:30:47.017Z,596.00
2024-04-13T01:31:47.015Z,594.00
2024-04-13T01:32:47.256Z,590.00
2024-04-13T01:33:47.132Z,589.00
2024-04-13T01:34:47.017Z,596.00
2024-04-13T01:35:47.028Z,605.00
2024-04-13T01:36:47.051Z,612.00
2024-04-13T01:37:47.052Z,613.00
2024-04-13T01:38:47.025Z,607.00
2024-04-13T01:39:47.147Z,599.00
2024-04-13T01:40:47.046Z,596.00
2024-04-13T01:41:47.017Z,591.00
2024-04-13T01:42:47.114Z,586.00
2024-04-13T01:43:47.024Z,578.00
2024-04-13T01:44:47.031Z,579.00
2024-04-13T01:45:47.036Z,578.00
2024-04-13T01:46:47.048Z,579.00
2024-04-13T01:47:47.168Z,583.00
2024-04-13T01:54:36.962Z,582.00
2024-04-13T01:55:08.861Z,584.00
2024-04-13T01:56:08.804Z,589.00
2024-04-13T01:57:08.920Z,589.00
2024-04-13T01:58:08.889Z,588.00
2024-04-13T01:59:08.791Z,583.00
2024-04-13T02:00:08.858Z,579.00
2024-04-13T02:01:08.858Z,576.00
2024-04-13T02:02:08.848Z,573.00
2024-04-13T02:03:08.846Z,572.00
2024-04-13T02:04:08.934Z,572.00
2024-04-13T02:05:08.801Z,571.00
2024-04-13T02:06:08.855Z,573.00
2024-04-13T02:07:08.809Z,575.00
2024-04-13T02:08:08.818Z,575.00
2024-04-13T02:09:08.824Z,577.00
2024-04-13T02:10:08.807Z,583.00
2024-04-13T02:11:08.918Z,586.00
2024-04-13T02:12:08.845Z,583.00
2024-04-13T02:13:08.825Z,578.00
2024-04-13T02:14:08.830Z,576.00
2024-04-13T02:15:08.874Z,577.00
2024-04-13T02:16:08.842Z,577.00
2024-04-13T02:17:08.815Z,574.00
2024-04-13T02:18:08.925Z,574.00
2024-04-13T02:19:08.918Z,579.00
2024-04-13T02:20:08.835Z,586.00
2024-04-13T02:21:08.870Z,590.00
2024-04-13T02:27:03.230Z,579.00
2024-04-13T02:27:26.468Z,577.00
2024-04-13T02:28:26.217Z,578.00
2024-04-13T02:29:26.225Z,582.00
2024-04-13T02:30:26.296Z,583.00
2024-04-13T02:31:26.238Z,586.00
2024-04-13T02:32:26.290Z,586.00
2024-04-13T02:34:03.353Z,587.00
2024-04-13T02:34:26.271Z,588.00
2024-04-13T02:35:26.233Z,586.00
2024-04-13T02:36:26.279Z,585.00
2024-04-13T02:37:26.261Z,583.00
2024-04-13T02:38:26.248Z,586.00
2024-04-13T02:39:26.250Z,594.00
2024-04-13T02:40:26.249Z,596.00
2024-04-13T02:44:11.964Z,581.00
2024-04-13T02:44:34.977Z,575.00
2024-04-13T02:45:35.028Z,576.00
2024-04-13T02:46:34.943Z,577.00
2024-04-13T02:49:07.778Z,589.00
2024-04-13T02:49:39.354Z,596.00
2024-04-13T02:50:39.336Z,597.00
2024-04-13T02:51:39.373Z,593.00
2024-04-13T02:52:39.325Z,594.00
2024-04-13T02:53:39.323Z,590.00
2024-04-13T02:54:39.382Z,586.00
2024-04-13T02:55:39.324Z,582.00
2024-04-13T02:56:39.326Z,580.00
2024-04-13T02:57:39.382Z,579.00
2024-04-13T02:58:39.329Z,578.00
2024-04-13T02:59:39.330Z,576.00
2024-04-13T03:00:39.472Z,575.00
2024-04-13T03:05:21.944Z,577.00
2024-04-13T03:05:52.597Z,580.00
2024-04-13T03:06:52.658Z,592.00
2024-04-13T03:07:52.646Z,598.00
2024-04-13T03:08:52.724Z,596.00
2024-04-13T03:09:52.821Z,593.00
2024-04-13T03:10:52.844Z,591.00
2024-04-13T03:12:00.132Z,588.00
2024-04-13T03:13:00.114Z,587.00
2024-04-13T03:14:00.119Z,581.00
2024-04-13T03:15:00.176Z,581.00
2024-04-13T03:16:00.123Z,587.00
2024-04-13T03:17:00.186Z,589.00
2024-04-13T03:18:00.174Z,591.00
2024-04-13T03:19:00.155Z,588.00
2024-04-13T03:20:00.174Z,585.00
2024-04-13T03:21:00.122Z,583.00
2024-04-13T03:22:00.146Z,583.00
2024-04-13T03:23:00.149Z,585.00
2024-04-13T03:24:00.151Z,586.00
2024-04-13T03:25:00.171Z,584.00
2024-04-13T03:26:00.121Z,586.00
2024-04-13T03:27:00.134Z,594.00
2024-04-13T03:28:00.134Z,601.00
2024-04-13T03:29:00.135Z,599.00
2024-04-13T03:30:00.222Z,597.00
2024-04-13T03:31:00.267Z,592.00
2024-04-13T03:32:00.282Z,589.00
2024-04-13T03:33:00.351Z,586.00
2024-04-13T03:34:00.395Z,587.00
2024-04-13T03:35:00.416Z,593.00
2024-04-13T03:36:00.478Z,597.00
2024-04-13T03:37:00.587Z,594.00
2024-04-13T03:38:00.576Z,592.00
2024-04-13T03:39:00.623Z,593.00
2024-04-13T03:42:36.530Z,608.00
2024-04-13T03:43:09.349Z,609.00
2024-04-13T03:44:09.369Z,604.00
2024-04-13T03:45:09.392Z,598.00
2024-04-13T03:46:09.359Z,592.00
2024-04-13T03:47:09.369Z,584.00
2024-04-13T03:48:09.422Z,575.00
2024-04-13T03:49:09.383Z,573.00
2024-04-13T03:50:09.361Z,574.00
2024-04-13T03:51:09.396Z,571.00
2024-04-13T03:52:09.396Z,569.00
2024-04-13T03:53:09.383Z,570.00
2024-04-13T03:56:45.101Z,566.00
2024-04-13T03:57:18.113Z,567.00
2024-04-13T03:58:18.051Z,568.00
2024-04-13T03:59:18.080Z,569.00
2024-04-13T04:00:18.227Z,573.00
2024-04-13T04:01:18.107Z,577.00
2024-04-13T04:03:59.560Z,579.00
2024-04-13T04:04:22.481Z,578.00
2024-04-13T04:05:22.423Z,578.00
2024-04-13T04:09:05.691Z,583.00
2024-04-13T04:11:02.539Z,585.00
2024-04-13T04:11:35.500Z,580.00
2024-04-13T04:12:35.554Z,577.00
2024-04-13T04:13:35.478Z,575.00
2024-04-13T04:14:36.155Z,587.00
2024-04-13T04:15:35.679Z,592.00
2024-04-13T04:16:35.446Z,595.00
2024-04-13T04:17:35.536Z,597.00
2024-04-13T04:18:35.582Z,597.00
2024-04-13T04:19:35.455Z,592.00
2024-04-13T04:20:35.506Z,590.00
2024-04-13T04:21:35.490Z,594.00
2024-04-13T04:22:35.465Z,597.00
2024-04-13T04:23:35.507Z,594.00
2024-04-13T04:24:35.501Z,597.00
2024-04-13T04:25:35.467Z,597.00
2024-04-13T04:26:35.485Z,593.00
2024-04-13T04:27:35.653Z,591.00
2024-04-13T04:28:35.464Z,592.00
2024-04-13T04:29:35.524Z,596.00
2024-04-13T04:30:35.466Z,599.00
2024-04-13T04:31:35.474Z,597.00
2024-04-13T04:32:35.503Z,596.00
2024-04-13T04:33:35.512Z,589.00
2024-04-13T04:34:35.477Z,587.00
2024-04-13T04:35:35.577Z,587.00
2024-04-13T04:36:35.569Z,586.00
2024-04-13T04:37:35.517Z,586.00
2024-04-13T04:38:35.497Z,590.00
2024-04-13T04:39:35.476Z,595.00
2024-04-13T04:40:35.516Z,598.00
2024-04-13T04:41:35.510Z,597.00
2024-04-13T04:42:35.591Z,596.00
2024-04-13T04:43:35.584Z,592.00
2024-04-13T04:44:35.691Z,595.00
2024-04-13T04:45:35.722Z,592.00
2024-04-13T04:48:09.891Z,588.00
2024-04-13T04:48:40.314Z,591.00
2024-04-13T04:49:40.092Z,593.00
2024-04-13T04:50:40.091Z,595.00
2024-04-13T04:51:40.137Z,597.00
2024-04-13T04:52:42.497Z,598.00
2024-04-13T04:53:40.081Z,595.00
2024-04-13T04:54:40.195Z,590.00
2024-04-13T04:55:40.089Z,586.00
2024-04-13T04:59:15.817Z,589.00
2024-04-13T05:02:24.573Z,596.00
2024-04-13T05:02:57.490Z,598.00
2024-04-13T05:03:57.536Z,598.00
2024-04-13T05:04:57.474Z,594.00
2024-04-13T05:05:57.496Z,589.00
2024-04-13T05:06:57.487Z,585.00
2024-04-13T05:15:00.576Z,560.00
2024-04-13T05:15:23.609Z,563.00
2024-04-13T05:16:23.590Z,566.00
2024-04-13T05:17:23.581Z,573.00
2024-04-13T05:18:23.771Z,577.00
2024-04-13T05:19:23.639Z,577.00
2024-04-13T05:20:23.568Z,581.00
2024-04-13T05:21:23.699Z,580.00
2024-04-13T05:22:23.590Z,579.00
2024-04-13T05:23:23.567Z,578.00
2024-04-13T05:24:23.674Z,573.00
2024-04-13T05:33:25.314Z,544.00
2024-04-13T05:33:54.172Z,546.00
2024-04-13T05:34:54.013Z,551.00
2024-04-13T05:35:54.042Z,550.00
2024-04-13T05:39:29.921Z,554.00
2024-04-13T05:40:02.765Z,558.00
2024-04-13T05:41:02.728Z,562.00
2024-04-13T05:42:02.733Z,563.00
2024-04-13T05:43:02.762Z,564.00
2024-04-13T05:44:02.723Z,568.00
2024-04-13T05:45:02.720Z,571.00
2024-04-13T05:46:02.735Z,570.00
2024-04-13T05:47:02.731Z,570.00
2024-04-13T05:48:02.772Z,566.00
2024-04-13T05:49:02.742Z,564.00
2024-04-13T05:50:02.739Z,558.00
2024-04-13T05:51:02.751Z,554.00
2024-04-13T05:52:02.748Z,552.00
2024-04-13T05:55:38.788Z,555.00
2024-04-13T05:56:11.437Z,554.00
2024-04-13T05:57:11.563Z,553.00
2024-04-13T05:58:14.068Z,551.00
2024-04-13T05:59:11.423Z,555.00
2024-04-13T06:00:11.452Z,556.00
2024-04-13T06:01:11.521Z,558.00
2024-04-13T06:02:11.448Z,563.00
2024-04-13T06:03:11.587Z,565.00
2024-04-13T06:04:11.511Z,567.00
2024-04-13T06:05:11.459Z,568.00
2024-04-13T06:06:11.510Z,563.00
2024-04-13T06:07:11.443Z,559.00
2024-04-13T06:08:11.462Z,554.00
2024-04-13T06:09:11.499Z,550.00
2024-04-13T06:10:11.457Z,551.00
2024-04-13T06:11:11.468Z,548.00
2024-04-13T06:12:11.504Z,546.00
2024-04-13T06:13:11.466Z,545.00
2024-04-13T06:14:11.451Z,543.00
2024-04-13T06:15:11.527Z,544.00
2024-04-13T06:16:11.498Z,544.00
2024-04-13T06:17:11.458Z,544.00
2024-04-13T06:18:11.535Z,545.00
2024-04-13T06:19:11.451Z,544.00
2024-04-13T06:32:26.342Z,544.00
2024-04-13T06:32:59.365Z,547.00
2024-04-13T06:33:59.408Z,548.00
2024-04-13T06:34:59.277Z,547.00
2024-04-13T06:35:59.300Z,547.00
2024-04-13T06:36:59.284Z,548.00
2024-04-13T06:37:59.298Z,546.00
2024-04-13T06:38:59.303Z,543.00
2024-04-13T06:39:59.315Z,540.00
2024-04-13T06:40:59.310Z,541.00
2024-04-13T06:41:59.338Z,540.00
2024-04-13T06:42:59.296Z,537.00
2024-04-13T06:43:59.297Z,536.00
2024-04-13T06:44:59.308Z,538.00
2024-04-13T06:45:59.339Z,543.00
2024-04-13T06:46:59.315Z,541.00
2024-04-13T06:47:59.381Z,539.00
2024-04-13T06:53:53.740Z,537.00
2024-04-13T06:54:16.825Z,535.00
2024-04-13T06:55:16.707Z,535.00
2024-04-13T06:56:16.718Z,535.00
2024-04-13T06:57:16.772Z,534.00
2024-04-13T07:01:06.135Z,533.00
2024-04-13T07:01:36.632Z,533.00
2024-04-13T07:02:36.598Z,535.00
2024-04-13T07:03:36.654Z,535.00
2024-04-13T07:04:36.628Z,536.00
2024-04-13T07:05:36.534Z,536.00
2024-04-13T07:06:36.585Z,537.00
2024-04-13T07:07:36.635Z,537.00
2024-04-13T07:08:43.828Z,539.00
2024-04-13T07:09:37.616Z,540.00
2024-04-13T07:10:36.540Z,541.00
2024-04-13T07:11:36.503Z,543.00
2024-04-13T07:12:36.511Z,542.00
2024-04-13T07:13:36.534Z,541.00
2024-04-13T07:14:36.558Z,541.00
2024-04-13T07:15:36.650Z,541.00
2024-04-13T07:16:36.532Z,539.00
2024-04-13T07:17:36.654Z,538.00
2024-04-13T07:18:36.633Z,537.00
2024-04-13T07:19:36.588Z,538.00
2024-04-13T07:20:36.527Z,537.00
2024-04-13T07:21:36.590Z,537.00
2024-04-13T07:22:36.659Z,541.00
2024-04-13T07:23:36.692Z,540.00
2024-04-13T07:24:36.733Z,542.00
2024-04-13T07:25:36.747Z,544.00
2024-04-13T07:26:36.810Z,542.00
2024-04-13T07:27:36.865Z,538.00
2024-04-13T07:28:36.867Z,537.00
2024-04-13T07:29:36.898Z,534.00
2024-04-13T07:30:36.914Z,534.00
2024-04-13T07:31:36.952Z,535.00
2024-04-13T07:32:37.085Z,536.00
2024-04-13T07:33:37.044Z,537.00
2024-04-13T07:34:36.996Z,536.00
2024-04-13T07:35:36.998Z,536.00
2024-04-13T07:45:52.204Z,519.00
2024-04-13T07:46:14.881Z,523.00
2024-04-13T07:47:14.867Z,520.00
2024-04-13T07:48:15.036Z,523.00
2024-04-13T07:51:54.623Z,523.00
2024-04-13T07:52:23.578Z,521.00
2024-04-13T07:53:23.551Z,520.00
2024-04-13T07:54:23.580Z,522.00
2024-04-13T07:55:23.591Z,523.00
2024-04-13T07:56:23.557Z,522.00
2024-04-13T07:57:23.610Z,521.00
2024-04-13T07:58:23.562Z,520.00
2024-04-13T07:59:23.586Z,517.00
2024-04-13T08:00:23.619Z,517.00
2024-04-13T08:01:23.593Z,516.00
2024-04-13T08:02:23.579Z,515.00
2024-04-13T08:03:23.681Z,516.00
2024-04-13T08:04:23.754Z,514.00
2024-04-13T08:11:31.441Z,515.00
2024-04-13T08:12:04.348Z,512.00
2024-04-13T08:13:04.376Z,513.00
2024-04-13T08:14:04.374Z,513.00
2024-04-13T08:15:04.370Z,516.00
2024-04-13T08:16:04.374Z,516.00
2024-04-13T08:17:04.435Z,514.00
2024-04-13T08:18:04.415Z,511.00
2024-04-13T08:26:07.506Z,506.00
2024-04-13T08:26:30.459Z,507.00
2024-04-13T08:27:32.787Z,506.00
2024-04-13T08:28:30.492Z,505.00
2024-04-13T08:29:30.452Z,504.00
2024-04-13T08:30:30.467Z,504.00
2024-04-13T08:31:30.497Z,505.00
2024-04-13T08:36:20.556Z,501.00
2024-04-13T08:36:43.593Z,503.00
2024-04-13T08:37:43.521Z,502.00
2024-04-13T08:38:43.500Z,504.00
2024-04-13T08:39:43.676Z,506.00
2024-04-13T08:40:43.505Z,505.00
2024-04-13T08:41:43.499Z,504.00
2024-04-13T08:42:43.555Z,506.00
2024-04-13T08:43:43.487Z,506.00
2024-04-13T08:44:43.512Z,505.00
2024-04-13T08:45:43.583Z,504.00
2024-04-13T08:46:43.507Z,503.00
2024-04-13T08:47:43.603Z,505.00
2024-04-13T08:48:43.652Z,506.00
2024-04-13T08:49:43.509Z,502.00
2024-04-13T08:50:43.540Z,501.00
2024-04-13T08:51:43.643Z,501.00
2024-04-13T08:52:43.517Z,498.00
2024-04-13T08:53:43.519Z,500.00
2024-04-13T08:54:43.585Z,501.00
2024-04-13T08:55:43.529Z,501.00
2024-04-13T08:56:43.554Z,498.00
2024-04-13T08:57:43.599Z,498.00
2024-04-13T08:58:43.571Z,498.00
2024-04-13T08:59:43.532Z,498.00
2024-04-13T09:00:48.640Z,497.00
2024-04-13T09:01:50.125Z,501.00
2024-04-13T09:02:43.549Z,502.00
2024-04-13T09:07:33.015Z,503.00
2024-04-13T09:07:56.626Z,503.00
2024-04-13T09:08:56.595Z,506.00
2024-04-13T09:09:56.576Z,505.00
2024-04-13T09:10:56.614Z,505.00
2024-04-13T09:12:00.469Z,505.00
2024-04-13T09:21:01.573Z,497.00
2024-04-13T09:21:27.066Z,498.00
2024-04-13T09:22:27.016Z,495.00
2024-04-13T09:23:27.037Z,495.00
2024-04-13T09:24:27.071Z,498.00
2024-04-13T09:25:27.040Z,497.00
2024-04-13T09:26:27.023Z,497.00
2024-04-13T09:27:27.045Z,499.00
2024-04-13T09:28:27.038Z,498.00
2024-04-13T09:29:27.082Z,495.00
2024-04-13T09:30:27.085Z,494.00
2024-04-13T09:31:27.034Z,492.00
2024-04-13T09:32:27.098Z,494.00
2024-04-13T09:33:27.111Z,495.00
2024-04-13T09:34:27.045Z,493.00
2024-04-13T09:51:04.953Z,487.00
2024-04-13T09:51:27.993Z,488.00
2024-04-13T09:52:27.910Z,484.00
2024-04-13T09:53:27.962Z,484.00
2024-04-13T09:54:28.172Z,480.00
2024-04-13T09:55:27.918Z,478.00
2024-04-13T10:00:11.989Z,486.00
2024-04-13T10:00:41.189Z,485.00
2024-04-13T10:01:41.098Z,488.00
2024-04-13T10:02:40.992Z,491.00
2024-04-13T10:03:41.111Z,490.00
2024-04-13T10:04:40.982Z,489.00
2024-04-13T10:05:40.983Z,488.00
2024-04-13T10:06:41.021Z,488.00
2024-04-13T10:07:40.991Z,486.00
2024-04-13T10:08:40.993Z,485.00
2024-04-13T10:09:41.043Z,485.00
2024-04-13T10:10:40.981Z,484.00
2024-04-13T10:11:40.985Z,486.00
2024-04-13T10:18:39.836Z,481.00
2024-04-13T10:19:02.781Z,483.00
2024-04-13T10:20:02.722Z,485.00
2024-04-13T10:21:02.727Z,486.00
2024-04-13T10:22:03.927Z,486.00
2024-04-13T10:23:02.772Z,487.00
2024-04-13T10:24:02.732Z,487.00
2024-04-13T10:25:02.721Z,486.00
2024-04-13T10:26:02.734Z,483.00
2024-04-13T10:27:02.739Z,482.00
2024-04-13T10:28:02.771Z,481.00
2024-04-13T10:29:02.766Z,480.00
2024-04-13T10:30:02.752Z,478.00
2024-04-13T11:12:24.658Z,482.00
2024-04-13T11:12:57.650Z,481.00
2024-04-13T11:13:57.650Z,481.00
2024-04-13T11:14:57.599Z,481.00
2024-04-13T11:15:57.621Z,480.00
2024-04-13T11:16:57.639Z,480.00
2024-04-13T11:17:57.719Z,479.00
2024-04-13T11:18:57.723Z,478.00
2024-04-13T11:19:57.600Z,477.00
2024-04-13T11:20:57.608Z,473.00
2024-04-13T11:21:57.644Z,474.00
2024-04-13T11:22:57.593Z,473.00
2024-04-13T11:23:57.603Z,471.00
2024-04-13T11:24:57.607Z,471.00
2024-04-13T11:25:57.617Z,470.00
2024-04-13T11:26:57.621Z,470.00
2024-04-13T11:27:57.665Z,471.00
2024-04-13T11:28:57.612Z,472.00
2024-04-13T11:29:57.615Z,471.00
2024-04-13T11:30:57.888Z,470.00
2024-04-13T11:31:57.664Z,472.00
2024-04-13T11:32:58.516Z,471.00
2024-04-13T11:33:57.694Z,471.00
2024-04-13T11:34:57.659Z,473.00
2024-04-13T11:35:57.647Z,474.00
2024-04-13T11:36:57.721Z,476.00
2024-04-13T11:37:57.628Z,474.00
2024-04-13T11:38:57.632Z,473.00
2024-04-13T11:39:57.656Z,473.00
2024-04-13T11:49:02.706Z,474.00
2024-04-13T11:49:30.046Z,475.00
2024-04-13T11:50:28.083Z,471.00
2024-04-13T11:51:28.119Z,473.00
2024-04-13T11:52:29.478Z,472.00
2024-04-13T11:53:28.073Z,472.00
2024-04-13T11:54:28.174Z,472.00
2024-04-13T11:55:28.083Z,471.00
2024-04-13T11:56:28.091Z,471.00
2024-04-13T11:57:28.159Z,470.00
2024-04-13T11:58:28.096Z,471.00
2024-04-13T11:59:28.095Z,470.00
2024-04-13T12:00:28.130Z,474.00
2024-04-13T12:01:28.118Z,475.00
2024-04-13T12:02:28.129Z,474.00
2024-04-13T12:03:28.173Z,474.00
2024-04-13T12:04:28.137Z,475.00
2024-04-13T12:05:28.089Z,477.00
2024-04-13T12:06:28.125Z,476.00
2024-04-13T12:07:28.108Z,478.00
2024-04-13T12:08:28.110Z,478.00
2024-04-13T12:09:28.198Z,477.00
2024-04-13T12:13:13.813Z,476.00
2024-04-13T12:13:36.847Z,474.00
2024-04-13T12:14:46.659Z,472.00
2024-04-13T12:15:37.859Z,474.00
2024-04-13T12:16:45.065Z,491.00
2024-04-13T12:17:45.141Z,488.00
2024-04-13T12:18:45.279Z,483.00
2024-04-13T12:19:45.120Z,481.00
2024-04-13T12:28:55.856Z,480.00
2024-04-13T12:29:25.863Z,478.00
2024-04-13T12:30:25.875Z,480.00
2024-04-13T12:31:25.843Z,480.00
2024-04-13T12:44:50.701Z,470.00
2024-04-13T12:45:13.677Z,469.00
2024-04-13T12:46:13.658Z,470.00
2024-04-13T12:47:13.696Z,470.00
2024-04-13T12:48:13.760Z,472.00
2024-04-13T12:49:13.704Z,474.00
2024-04-13T12:50:13.661Z,475.00
2024-04-13T12:51:13.671Z,472.00
2024-04-13T12:52:13.683Z,473.00
2024-04-13T12:53:13.694Z,473.00
2024-04-13T12:54:13.696Z,474.00
2024-04-13T12:55:13.667Z,475.00
2024-04-13T12:56:13.663Z,476.00
2024-04-13T12:57:13.673Z,475.00
2024-04-13T12:58:13.682Z,476.00
2024-04-13T13:01:53.430Z,476.00
2024-04-13T13:02:22.444Z,476.00
2024-04-13T13:03:22.454Z,475.00
2024-04-13T13:04:22.397Z,474.00
2024-04-13T13:09:18.981Z,469.00
2024-04-13T13:09:47.988Z,467.00
2024-04-13T13:10:47.938Z,469.00
2024-04-13T13:11:52.928Z,472.00
2024-04-13T13:12:47.969Z,472.00
2024-04-13T13:13:47.913Z,476.00
2024-04-13T13:14:47.920Z,476.00
2024-04-13T13:15:47.961Z,475.00
2024-04-13T13:16:47.947Z,473.00
2024-04-13T13:17:47.945Z,473.00
2024-04-13T13:18:47.964Z,475.00
2024-04-13T13:21:23.333Z,480.00
2024-04-13T13:21:52.344Z,479.00
2024-04-13T13:22:52.244Z,480.00
2024-04-13T13:23:52.248Z,480.00
2024-04-13T13:26:33.597Z,478.00
2024-04-13T13:26:56.608Z,478.00
2024-04-13T13:27:56.640Z,479.00
2024-04-13T13:28:58.943Z,478.00
2024-04-13T13:29:56.646Z,476.00
2024-04-13T13:30:56.750Z,474.00
2024-04-13T13:31:56.763Z,474.00
2024-04-13T13:32:56.840Z,473.00
2024-04-13T13:33:56.909Z,474.00
2024-04-13T13:34:56.875Z,475.00
2024-04-13T13:35:56.858Z,471.00
2024-04-13T13:36:57.029Z,473.00
2024-04-13T13:37:56.965Z,472.00
2024-04-13T13:38:57.007Z,471.00
2024-04-13T13:39:57.116Z,469.00
2024-04-13T13:40:57.095Z,470.00
2024-04-13T13:41:57.117Z,471.00
2024-04-13T13:42:57.147Z,470.00
2024-04-13T13:43:57.180Z,468.00
2024-04-13T13:44:57.210Z,464.00
2024-04-13T13:45:57.237Z,463.00
2024-04-13T13:46:57.267Z,464.00
2024-04-13T13:47:57.350Z,468.00
2024-04-13T13:48:57.456Z,467.00
2024-04-13T13:49:57.359Z,469.00
2024-04-13T13:50:57.403Z,469.00
2024-04-13T13:51:57.510Z,468.00
2024-04-13T13:52:57.516Z,468.00
2024-04-13T13:53:57.514Z,473.00
2024-04-13T13:54:57.554Z,470.00
2024-04-13T13:55:57.646Z,470.00
2024-04-13T13:56:57.668Z,473.00
2024-04-13T13:57:57.708Z,474.00
2024-04-13T13:58:59.094Z,472.00
2024-04-13T13:59:57.824Z,470.00
2024-04-13T14:00:58.034Z,472.00
2024-04-13T14:01:57.982Z,472.00
2024-04-13T14:02:58.027Z,473.00
2024-04-13T14:03:58.067Z,475.00
2024-04-13T14:04:59.734Z,472.00
2024-04-13T14:17:12.585Z,478.00
2024-04-13T14:17:41.626Z,474.00
2024-04-13T14:18:41.605Z,475.00
2024-04-13T14:19:41.523Z,473.00
2024-04-13T14:20:41.563Z,473.00
2024-04-13T14:21:41.543Z,474.00
2024-04-13T14:22:41.539Z,475.00
2024-04-13T14:23:41.545Z,479.00
2024-04-13T14:24:41.551Z,480.00
2024-04-13T14:25:41.575Z,482.00
2024-04-13T14:26:41.530Z,482.00
2024-04-13T14:27:41.570Z,477.00
2024-04-13T14:28:41.536Z,480.00
2024-04-13T14:29:41.557Z,479.00
2024-04-13T14:30:41.585Z,486.00
2024-04-13T14:31:41.562Z,476.00
2024-04-13T14:32:41.638Z,477.00
2024-04-13T14:33:41.611Z,475.00
2024-04-13T14:34:41.554Z,477.00
2024-04-13T14:35:41.540Z,481.00
2024-04-13T14:36:41.951Z,483.00
2024-04-13T14:37:41.558Z,482.00
2024-04-13T14:38:41.548Z,482.00
2024-04-13T14:39:41.674Z,481.00
2024-04-13T14:40:41.559Z,483.00
2024-04-13T14:41:41.556Z,485.00
2024-04-13T14:42:41.626Z,484.00
2024-04-13T14:43:41.591Z,485.00
2024-04-13T14:44:41.590Z,484.00
2024-04-13T14:45:41.571Z,484.00
2024-04-13T14:46:41.559Z,483.00
2024-04-13T14:47:41.590Z,481.00
2024-04-13T14:48:41.715Z,481.00
2024-04-13T14:49:41.586Z,482.00
2024-04-13T14:50:41.564Z,486.00
2024-04-13T14:51:41.607Z,485.00
2024-04-13T14:52:41.561Z,485.00
2024-04-13T14:53:41.562Z,487.00
2024-04-13T14:54:41.718Z,488.00
2024-04-13T14:55:41.633Z,490.00
2024-04-13T14:56:41.642Z,484.00
2024-04-13T14:57:41.718Z,487.00
2024-04-13T14:58:41.749Z,490.00
2024-04-13T14:59:41.752Z,484.00
2024-04-13T15:00:41.813Z,481.00
2024-04-13T15:01:41.867Z,481.00
2024-04-13T15:02:41.882Z,481.00
2024-04-13T15:03:41.932Z,481.00
2024-04-13T15:04:42.000Z,481.00
2024-04-13T15:09:26.161Z,482.00
2024-04-13T15:09:55.011Z,484.00
2024-04-13T15:20:02.407Z,496.00
2024-04-13T15:20:30.037Z,495.00
2024-04-13T15:21:30.138Z,499.00
2024-04-13T15:22:30.102Z,494.00
2024-04-13T15:23:30.164Z,492.00
2024-04-13T15:24:30.150Z,487.00
2024-04-13T15:25:30.202Z,490.00
2024-04-13T15:26:30.214Z,492.00
2024-04-13T15:27:30.310Z,491.00
2024-04-13T15:28:30.320Z,495.00
2024-04-13T15:29:30.329Z,491.00
2024-04-13T15:30:30.414Z,489.00
2024-04-13T15:31:30.456Z,489.00
2024-04-13T15:32:30.530Z,485.00
2024-04-13T15:33:30.571Z,486.00
2024-04-13T15:34:30.565Z,483.00
2024-04-13T15:35:30.579Z,483.00
2024-04-13T15:36:30.608Z,480.00
2024-04-13T15:37:30.619Z,481.00
2024-04-13T15:50:45.488Z,475.00
2024-04-13T15:51:18.520Z,476.00
2024-04-13T15:52:18.474Z,474.00
2024-04-13T15:53:18.472Z,476.00
2024-04-13T15:54:18.530Z,478.00
2024-04-13T15:55:18.463Z,477.00
2024-04-13T15:56:18.469Z,477.00
2024-04-13T15:57:18.545Z,475.00
2024-04-13T15:58:18.481Z,475.00
2024-04-13T15:59:18.473Z,477.00
2024-04-13T16:00:18.553Z,479.00
2024-04-13T16:01:18.576Z,480.00
2024-04-13T16:02:18.542Z,483.00
2024-04-13T16:03:18.558Z,484.00
2024-04-13T16:04:18.560Z,483.00
2024-04-13T16:05:18.501Z,483.00
2024-04-13T16:06:18.496Z,481.00
2024-04-13T16:07:18.477Z,482.00
2024-04-13T16:08:18.480Z,481.00
2024-04-13T16:09:18.594Z,480.00
2024-04-13T16:12:55.758Z,481.00
2024-04-13T16:18:11.591Z,483.00
2024-04-13T16:18:44.596Z,478.00
2024-04-13T16:19:44.573Z,478.00
2024-04-13T16:20:44.569Z,476.00
2024-04-13T16:21:44.637Z,477.00
2024-04-13T16:22:44.585Z,479.00
2024-04-13T16:23:44.570Z,479.00
2024-04-13T16:24:45.400Z,478.00
2024-04-13T16:25:44.664Z,474.00
2024-04-13T16:26:44.733Z,471.00
2024-04-13T16:27:44.794Z,473.00
2024-04-13T16:28:44.780Z,473.00
2024-04-13T16:29:44.860Z,476.00
2024-04-13T16:30:44.893Z,477.00
2024-04-13T16:31:44.930Z,476.00
2024-04-13T16:32:45.089Z,477.00
2024-04-13T16:33:45.074Z,474.00
2024-04-13T16:34:45.109Z,476.00
2024-04-13T16:39:25.292Z,484.00
2024-04-13T16:39:58.223Z,486.00
2024-04-13T16:40:58.177Z,485.00
2024-04-13T16:41:58.188Z,484.00
2024-04-13T16:42:58.226Z,482.00
2024-04-13T16:43:58.181Z,481.00
2024-04-13T16:44:58.181Z,478.00
2024-04-13T16:56:07.338Z,477.00
2024-04-13T16:56:37.346Z,475.00
2024-04-13T16:57:37.391Z,475.00
2024-04-13T16:58:37.292Z,476.00
2024-04-13T16:59:37.315Z,476.00
2024-04-13T17:00:37.366Z,474.00
2024-04-13T17:01:37.332Z,475.00
2024-04-13T17:02:37.401Z,477.00
2024-04-13T17:03:37.364Z,476.00
2024-04-13T17:04:37.317Z,474.00
2024-04-13T17:05:37.312Z,476.00
2024-04-13T17:06:37.370Z,480.00
2024-04-13T17:07:37.325Z,480.00
2024-04-13T17:08:37.333Z,483.00
2024-04-13T17:09:37.336Z,483.00
2024-04-13T17:10:37.332Z,480.00
2024-04-13T17:14:18.529Z,487.00
2024-04-13T17:14:46.193Z,485.00
2024-04-13T17:15:46.274Z,485.00
2024-04-13T17:16:46.231Z,484.00
2024-04-13T17:17:48.370Z,488.00
2024-04-13T17:18:46.580Z,489.00
2024-04-13T17:23:29.651Z,494.00
2024-04-13T17:23:59.608Z,491.00
2024-04-13T17:24:59.628Z,497.00
2024-04-13T17:25:59.610Z,505.00
2024-04-13T17:26:59.629Z,504.00
2024-04-13T17:27:59.609Z,503.00
2024-04-13T17:28:59.600Z,503.00
2024-04-13T17:29:59.602Z,503.00